Ulan Bator, Mongolia

11:30 PM ULAT on December 09, 2016 (GMT +0800)
Buyant-Ukhaa | | Change Station

Elev 4364 ft 47.83 °N, 106.78 °E | Updated 16 seconds ago

Clear
Clear
-20 °F
Feels Like -20 °F
N
2
Wind Variable Wind from Variable

Today
High -- | Low -- °F
--% Chance of Precip.
Yesterday
High -- | Low -- °F
Precip. -- in
Pressure 30.18 in
Visibility 3.1 miles
Clouds
Dew Point -27 °F
Humidity 69%
Rainfall 0.15 in
Snow Depth Not available.
8:29 AM 4:59 PM
Waxing Gibbous, 75% visible
METAR ZMUB 091530Z VRB01MPS 5000NW FU NSC M29/M33 Q1022 NOSIG RMK QFE658.9 68 NT
Pressure 30.18 in
Visibility 3.1 miles
Clouds
Dew Point -27 °F
Humidity 69%
Rainfall 0.15 in
Snow Depth Not available.
8:29 AM 4:59 PM
Waxing Gibbous, 75% visible
METAR ZMUB 091530Z VRB01MPS 5000NW FU NSC M29/M33 Q1022 NOSIG RMK QFE658.9 68 NT

10-Day Weather Forecast

No radar image for this location.
×

Almanac

Astronomy

Dec. 09, 2016 Rise Set
Actual Time
Civil Twilight
Nautical Twilight
Astronomical Twilight
Moon
Length of Visible Light
Length of Day
Tomorrow will be .
, % of the Moon is Illuminated

Today's Extremes

Country Highs Country Lows

Community

WunderPhotos

Upload Photos

1,956,432 photos uploaded!

WunderBlog® & News

Nearby

Air Quality

  Air Quality AQ Index Pollutant
Not available.

Snow Depth

Station Depth Elevation

Earthquake Activity

City Distance Mag. Time & Date
Minimum magnitude displayed is 2.5.

Coastal Water Temperatures

Place Temperature

Stations

Nearby Weather Stations

Station Location Temp. Windchill Dew Point Humidity Wind Precip. Elev Updated Type